createdAt,value
2018-03-18T00:01:57.610Z,42.60
2018-03-18T00:04:25.896Z,42.50
2018-03-18T00:06:53.400Z,42.50
2018-03-18T00:09:20.925Z,42.40
2018-03-18T00:11:48.437Z,42.10
2018-03-18T00:14:16.677Z,42.60
2018-03-18T00:16:44.276Z,42.60
2018-03-18T00:19:11.860Z,42.30
2018-03-18T00:21:39.539Z,42.40
2018-03-18T00:24:08.031Z,42.80
2018-03-18T00:26:36.310Z,42.60
2018-03-18T00:29:04.595Z,42.80
2018-03-18T00:31:32.986Z,43.00
2018-03-18T00:34:01.326Z,43.10
2018-03-18T00:36:28.916Z,43.10
2018-03-18T00:38:56.438Z,43.20
2018-03-18T00:41:23.927Z,42.90
2018-03-18T00:43:51.426Z,43.00
2018-03-18T00:46:19.694Z,42.90
2018-03-18T00:48:48.501Z,43.10
2018-03-18T00:51:27.847Z,43.10
2018-03-18T00:53:55.344Z,42.80
2018-03-18T00:56:22.856Z,42.70
2018-03-18T00:58:51.104Z,43.40
2018-03-18T01:01:18.610Z,43.30
2018-03-18T01:03:46.108Z,43.60
2018-03-18T01:06:13.710Z,43.10
2018-03-18T01:08:41.440Z,42.90
2018-03-18T01:11:08.955Z,43.00
2018-03-18T01:13:37.226Z,42.80
2018-03-18T01:16:05.495Z,42.80
2018-03-18T01:18:33.068Z,42.70
2018-03-18T01:21:00.612Z,42.50
2018-03-18T01:23:28.098Z,42.90
2018-03-18T01:25:56.436Z,43.40
2018-03-18T01:28:23.936Z,43.20
2018-03-18T01:30:51.454Z,43.30
2018-03-18T01:33:19.046Z,42.90
2018-03-18T01:35:46.496Z,42.80
2018-03-18T01:38:13.998Z,42.50
2018-03-18T01:40:42.344Z,42.70
2018-03-18T01:43:09.871Z,42.60
2018-03-18T01:45:38.110Z,42.90
2018-03-18T01:48:05.648Z,42.90
2018-03-18T01:50:33.134Z,42.80
2018-03-18T01:53:13.258Z,43.20
2018-03-18T01:55:40.749Z,42.70
2018-03-18T01:58:08.235Z,42.30
2018-03-18T02:00:36.905Z,42.50
2018-03-18T02:03:04.418Z,42.40
2018-03-18T02:05:31.913Z,42.40
2018-03-18T02:07:59.414Z,42.40
2018-03-18T02:10:27.668Z,42.20
2018-03-18T02:12:55.930Z,42.20
2018-03-18T02:15:23.468Z,42.10
2018-03-18T02:17:51.052Z,41.80
2018-03-18T02:20:18.559Z,41.80
2018-03-18T02:22:46.840Z,42.10
2018-03-18T02:25:15.174Z,41.90
2018-03-18T02:27:42.676Z,41.90
2018-03-18T02:30:10.964Z,42.40
2018-03-18T02:32:39.333Z,41.70
2018-03-18T02:35:06.855Z,41.70
2018-03-18T02:37:34.389Z,41.70
2018-03-18T02:40:02.678Z,41.60
2018-03-18T02:42:30.207Z,41.50
2018-03-18T02:44:57.754Z,41.90
2018-03-18T02:47:25.260Z,41.60
2018-03-18T02:49:53.521Z,41.60
2018-03-18T02:52:21.804Z,41.50
2018-03-18T02:54:49.310Z,41.50
2018-03-18T02:57:16.834Z,41.50
2018-03-18T02:59:45.109Z,42.20
2018-03-18T03:02:13.375Z,41.80
2018-03-18T03:04:40.890Z,41.80
2018-03-18T03:07:08.392Z,42.10
2018-03-18T03:09:35.881Z,42.30
2018-03-18T03:12:04.904Z,42.70
2018-03-18T03:14:32.416Z,42.70
2018-03-18T03:17:00.019Z,42.90
2018-03-18T03:19:28.316Z,42.50
2018-03-18T03:21:56.017Z,42.40
2018-03-18T03:24:23.701Z,42.60
2018-03-18T03:26:51.213Z,42.70
2018-03-18T03:29:18.720Z,43.00
2018-03-18T03:31:46.262Z,42.80
2018-03-18T03:34:13.952Z,42.90
2018-03-18T03:36:41.398Z,43.20
2018-03-18T03:39:09.061Z,43.40
2018-03-18T03:41:36.569Z,43.20
2018-03-18T03:44:04.078Z,43.10
2018-03-18T03:46:31.603Z,43.10
2018-03-18T03:48:59.139Z,43.30
2018-03-18T03:51:26.623Z,43.40
2018-03-18T03:53:54.899Z,43.70
2018-03-18T03:56:22.417Z,43.30
2018-03-18T03:58:50.701Z,43.80
2018-03-18T04:01:18.201Z,44.00
2018-03-18T04:03:45.713Z,43.70
2018-03-18T04:06:13.258Z,43.80
2018-03-18T04:08:41.543Z,44.30
2018-03-18T04:11:09.207Z,44.30
2018-03-18T04:13:36.746Z,44.00
2018-03-18T04:16:04.297Z,44.20
2018-03-18T04:18:31.811Z,44.20
2018-03-18T04:20:59.305Z,44.60
2018-03-18T04:23:26.823Z,44.80
2018-03-18T04:25:55.093Z,44.60
2018-03-18T04:28:22.584Z,44.60
2018-03-18T04:30:50.083Z,44.50
2018-03-18T04:33:17.565Z,44.70
2018-03-18T04:35:45.059Z,44.80
2018-03-18T04:38:13.311Z,45.10
2018-03-18T04:40:40.885Z,45.20
2018-03-18T04:43:09.144Z,44.90
2018-03-18T04:45:36.935Z,45.20
2018-03-18T04:48:04.427Z,45.40
2018-03-18T04:50:31.923Z,45.30
2018-03-18T04:52:59.427Z,45.40
2018-03-18T04:55:27.699Z,45.50
2018-03-18T04:57:55.227Z,45.40
2018-03-18T05:00:22.727Z,45.70
2018-03-18T05:02:50.252Z,45.80
2018-03-18T05:05:17.780Z,46.00
2018-03-18T05:07:45.265Z,45.90
2018-03-18T05:10:12.789Z,45.90
2018-03-18T05:12:41.057Z,46.10
2018-03-18T05:15:08.544Z,46.10
2018-03-18T05:17:36.807Z,46.20
2018-03-18T05:20:05.079Z,46.50
2018-03-18T05:22:32.573Z,46.40
2018-03-18T05:25:00.086Z,46.20
2018-03-18T05:27:27.576Z,46.30
2018-03-18T05:29:55.839Z,46.40
2018-03-18T05:32:24.035Z,46.40
2018-03-18T05:34:52.307Z,46.40
2018-03-18T05:37:19.819Z,46.40
2018-03-18T05:39:47.332Z,46.40
2018-03-18T05:42:14.827Z,46.10
2018-03-18T05:44:42.337Z,46.20
2018-03-18T05:47:09.825Z,46.10
2018-03-18T05:49:37.347Z,46.10
2018-03-18T05:52:04.840Z,46.20
2018-03-18T05:54:32.334Z,46.40
2018-03-18T05:57:00.602Z,46.20
2018-03-18T05:59:28.859Z,46.10
2018-03-18T06:01:56.358Z,46.10
2018-03-18T06:04:23.845Z,46.20
2018-03-18T06:06:51.334Z,46.00
2018-03-18T06:09:18.827Z,46.10
2018-03-18T06:11:46.359Z,46.10
2018-03-18T06:14:13.847Z,46.00
2018-03-18T06:16:41.349Z,45.70
2018-03-18T06:19:08.872Z,45.70
2018-03-18T06:21:36.374Z,45.40
2018-03-18T06:24:03.875Z,45.40
2018-03-18T06:26:31.386Z,45.30
2018-03-18T06:28:59.647Z,44.20
2018-03-18T06:31:27.211Z,44.20
2018-03-18T06:33:54.717Z,44.30
2018-03-18T06:36:22.273Z,44.50
2018-03-18T06:38:49.751Z,43.80
2018-03-18T06:41:17.237Z,43.10
2018-03-18T06:43:44.754Z,42.80
2018-03-18T06:46:12.253Z,42.30
2018-03-18T06:48:39.751Z,42.10
2018-03-18T06:51:07.244Z,41.70
2018-03-18T06:53:35.488Z,41.70
2018-03-18T06:56:02.982Z,41.70
2018-03-18T06:58:31.256Z,41.80
2018-03-18T07:00:59.526Z,41.70
2018-03-18T07:03:27.019Z,41.70
2018-03-18T07:05:54.566Z,41.90
2018-03-18T07:08:22.834Z,41.50
2018-03-18T07:10:51.098Z,41.60
2018-03-18T07:13:18.607Z,41.00
2018-03-18T07:15:46.235Z,40.90
2018-03-18T07:18:13.758Z,41.20
2018-03-18T07:20:41.412Z,41.00
2018-03-18T07:23:09.062Z,39.80
2018-03-18T07:25:36.547Z,40.10
2018-03-18T07:28:04.051Z,40.30
2018-03-18T07:30:31.554Z,40.50
2018-03-18T07:32:59.075Z,40.40
2018-03-18T07:35:28.118Z,40.50
2018-03-18T07:37:55.626Z,40.40
2018-03-18T07:40:23.114Z,40.50
2018-03-18T07:42:50.640Z,40.30
2018-03-18T07:45:18.127Z,40.00
2018-03-18T07:47:45.641Z,40.20
2018-03-18T07:50:13.205Z,40.50
2018-03-18T07:52:40.719Z,40.40
2018-03-18T07:55:08.233Z,39.90
2018-03-18T07:57:35.834Z,39.90
2018-03-18T08:00:03.347Z,39.30
2018-03-18T08:02:31.602Z,38.30
2018-03-18T08:04:59.874Z,38.50
2018-03-18T08:07:27.413Z,38.20
2018-03-18T08:09:54.920Z,38.20
2018-03-18T08:12:23.221Z,38.30
2018-03-18T08:14:50.762Z,38.30
2018-03-18T08:17:19.026Z,37.80
2018-03-18T08:19:47.289Z,38.00
2018-03-18T08:22:14.779Z,37.60
2018-03-18T08:24:43.133Z,35.60
2018-03-18T08:27:10.679Z,35.60
2018-03-18T08:29:38.186Z,36.10
2018-03-18T08:32:05.677Z,36.20
2018-03-18T08:34:33.193Z,35.20
2018-03-18T08:37:00.756Z,34.70
2018-03-18T08:39:28.247Z,35.20
2018-03-18T08:41:56.521Z,35.00
2018-03-18T08:44:24.055Z,34.70
2018-03-18T08:46:51.566Z,35.10
2018-03-18T08:49:20.158Z,35.10
2018-03-18T08:51:48.437Z,34.50
2018-03-18T08:54:16.711Z,33.50
2018-03-18T08:56:45.058Z,33.50
2018-03-18T08:59:12.583Z,33.50
2018-03-18T09:01:40.095Z,34.30
2018-03-18T09:04:08.401Z,33.80
2018-03-18T09:06:36.719Z,33.10
2018-03-18T09:09:04.945Z,32.70
2018-03-18T09:11:32.499Z,32.70
2018-03-18T09:13:59.992Z,32.00
2018-03-18T09:16:27.487Z,32.00
2018-03-18T09:18:55.053Z,32.10
2018-03-18T09:21:22.551Z,32.20
2018-03-18T09:23:50.181Z,32.00
2018-03-18T09:26:18.109Z,31.70
2018-03-18T09:28:45.628Z,31.60
2018-03-18T09:31:13.110Z,32.00
2018-03-18T09:33:40.805Z,31.70
2018-03-18T09:36:08.307Z,31.70
2018-03-18T09:38:35.817Z,31.10
2018-03-18T09:41:03.361Z,30.30
2018-03-18T09:43:30.922Z,30.00
2018-03-18T09:45:58.447Z,30.00
2018-03-18T09:48:25.978Z,29.60
2018-03-18T09:50:53.469Z,29.40
2018-03-18T09:53:21.775Z,28.70
2018-03-18T09:55:49.299Z,28.70
2018-03-18T09:58:17.573Z,28.00
2018-03-18T10:00:45.090Z,28.00
2018-03-18T10:03:13.371Z,28.00
2018-03-18T10:05:40.877Z,27.70
2018-03-18T10:08:08.429Z,27.20
2018-03-18T10:10:35.945Z,27.00
2018-03-18T10:13:03.473Z,27.00
2018-03-18T10:15:30.985Z,26.70
2018-03-18T10:17:58.468Z,26.40
2018-03-18T10:20:26.010Z,26.00
2018-03-18T10:22:53.513Z,25.40
2018-03-18T10:25:21.048Z,25.20
2018-03-18T10:27:48.554Z,25.30
2018-03-18T10:30:16.853Z,25.70
2018-03-18T10:32:45.137Z,25.70
2018-03-18T10:35:12.702Z,25.70
2018-03-18T10:37:40.213Z,25.80
2018-03-18T10:40:07.813Z,25.70
2018-03-18T10:42:36.110Z,25.50
2018-03-18T10:45:04.592Z,25.00
2018-03-18T10:47:32.913Z,25.20
2018-03-18T10:50:00.430Z,25.20
2018-03-18T10:52:28.742Z,25.40
2018-03-18T10:54:56.405Z,25.40
2018-03-18T10:57:23.900Z,25.30
2018-03-18T10:59:51.423Z,24.70
2018-03-18T11:02:21.815Z,24.90
2018-03-18T11:04:49.365Z,25.00
2018-03-18T11:07:16.935Z,24.90
2018-03-18T11:09:44.565Z,24.20
2018-03-18T11:12:12.099Z,24.20
2018-03-18T11:14:39.625Z,24.50
2018-03-18T11:17:07.137Z,24.60
2018-03-18T11:19:34.664Z,24.80
2018-03-18T11:22:02.202Z,24.70
2018-03-18T11:24:29.696Z,25.00
2018-03-18T11:26:57.220Z,24.70
2018-03-18T11:29:24.734Z,24.40
2018-03-18T11:31:53.135Z,24.70
2018-03-18T11:34:24.447Z,24.70
2018-03-18T11:36:51.987Z,24.20
2018-03-18T11:39:19.517Z,24.50
2018-03-18T11:41:47.025Z,24.60
2018-03-18T11:44:14.532Z,24.60
2018-03-18T11:46:42.808Z,24.40
2018-03-18T11:49:11.079Z,24.20
2018-03-18T11:51:39.362Z,23.90
2018-03-18T11:54:07.678Z,24.30
2018-03-18T11:56:35.216Z,24.20
2018-03-18T11:59:03.588Z,24.50
2018-03-18T12:01:31.860Z,24.40
2018-03-18T12:04:00.998Z,24.00
2018-03-18T12:06:28.534Z,24.00
2018-03-18T12:08:58.626Z,23.70
2018-03-18T12:11:26.156Z,23.70
2018-03-18T12:13:53.667Z,24.00
2018-03-18T12:16:21.209Z,23.50
2018-03-18T12:18:49.151Z,23.50
2018-03-18T12:21:16.690Z,23.60
2018-03-18T12:23:44.560Z,23.80
2018-03-18T12:26:13.117Z,23.10
2018-03-18T12:28:40.813Z,23.10
2018-03-18T12:31:08.372Z,22.90
2018-03-18T12:33:36.637Z,22.90
2018-03-18T12:36:04.145Z,22.50
2018-03-18T12:38:31.642Z,22.80
2018-03-18T12:40:59.159Z,22.80
2018-03-18T12:43:31.014Z,22.70
2018-03-18T12:45:59.284Z,22.90
2018-03-18T12:48:27.558Z,23.10
2018-03-18T12:50:55.063Z,23.00
2018-03-18T12:53:22.585Z,22.80
2018-03-18T12:55:50.145Z,22.70
2018-03-18T12:58:17.665Z,22.90
2018-03-18T13:00:45.166Z,22.60
2018-03-18T13:03:12.687Z,22.10
2018-03-18T13:05:40.288Z,21.90
2018-03-18T13:08:07.844Z,21.80
2018-03-18T13:10:35.360Z,22.10
2018-03-18T13:13:02.885Z,22.40
2018-03-18T13:15:31.179Z,22.20
2018-03-18T13:18:00.171Z,22.40
2018-03-18T13:20:27.673Z,22.40
2018-03-18T13:22:55.181Z,22.30
2018-03-18T13:25:22.735Z,21.90
2018-03-18T13:27:50.249Z,21.80
2018-03-18T13:30:18.515Z,21.70
2018-03-18T13:32:46.791Z,21.70
2018-03-18T13:35:14.300Z,21.70
2018-03-18T13:37:41.829Z,21.70
2018-03-18T13:40:10.147Z,21.60
2018-03-18T13:42:37.665Z,21.50
2018-03-18T13:45:05.275Z,21.30
2018-03-18T13:47:32.803Z,21.60
2018-03-18T13:50:00.319Z,21.60
2018-03-18T13:52:27.823Z,21.40
2018-03-18T13:54:56.100Z,21.50
2018-03-18T13:57:24.387Z,22.00
2018-03-18T13:59:52.668Z,21.80
2018-03-18T14:02:20.223Z,21.80
2018-03-18T14:04:48.291Z,21.60
2018-03-18T14:07:16.596Z,21.30
2018-03-18T14:09:44.869Z,20.90
2018-03-18T14:12:13.165Z,21.30
2018-03-18T14:14:40.731Z,21.20
2018-03-18T14:17:08.258Z,21.60
2018-03-18T14:19:35.817Z,21.90
2018-03-18T14:22:03.430Z,21.50
2018-03-18T14:24:30.945Z,21.20
2018-03-18T14:26:58.470Z,20.80
2018-03-18T14:29:26.015Z,20.90
2018-03-18T14:31:54.560Z,21.30
2018-03-18T14:34:22.297Z,21.30
2018-03-18T14:36:50.010Z,21.20
2018-03-18T14:39:17.524Z,21.10
2018-03-18T14:41:46.207Z,21.00
2018-03-18T14:44:13.772Z,21.30
2018-03-18T14:46:41.271Z,21.40
2018-03-18T14:49:09.577Z,22.10
2018-03-18T14:51:37.089Z,21.70
2018-03-18T14:54:04.636Z,21.80
2018-03-18T14:56:32.976Z,21.60
2018-03-18T14:59:00.466Z,21.60
2018-03-18T15:01:28.832Z,20.60
2018-03-18T15:03:56.351Z,20.60
2018-03-18T15:06:23.888Z,20.80
2018-03-18T15:08:51.415Z,20.70
2018-03-18T15:11:18.929Z,20.70
2018-03-18T15:13:46.415Z,20.30
2018-03-18T15:16:13.909Z,20.30
2018-03-18T15:18:41.476Z,20.30
2018-03-18T15:21:08.988Z,20.60
2018-03-18T15:23:36.504Z,20.90
2018-03-18T15:26:04.056Z,21.00
2018-03-18T15:28:31.570Z,21.30
2018-03-18T15:30:59.071Z,21.50
2018-03-18T15:33:26.567Z,21.50
2018-03-18T15:35:54.839Z,21.80
2018-03-18T15:38:22.369Z,21.80
2018-03-18T15:40:49.867Z,21.90
2018-03-18T15:43:18.126Z,20.50
2018-03-18T15:45:45.622Z,20.40
2018-03-18T15:48:13.887Z,20.40
2018-03-18T15:50:41.413Z,20.40
2018-03-18T15:53:08.921Z,20.70
2018-03-18T15:55:36.696Z,20.60
2018-03-18T15:58:05.112Z,21.20
2018-03-18T16:00:32.634Z,21.20
2018-03-18T16:03:00.136Z,21.50
2018-03-18T16:05:27.633Z,21.70
2018-03-18T16:07:55.169Z,21.80
2018-03-18T16:10:22.836Z,22.00
2018-03-18T16:12:50.473Z,21.70
2018-03-18T16:15:18.791Z,20.70
2018-03-18T16:17:46.283Z,20.70
2018-03-18T16:20:14.548Z,21.00
2018-03-18T16:22:42.056Z,20.90
2018-03-18T16:25:10.377Z,21.30
2018-03-18T16:27:38.518Z,21.30
2018-03-18T16:30:18.753Z,21.30
2018-03-18T16:32:47.074Z,21.70
2018-03-18T16:35:14.557Z,21.70
2018-03-18T16:37:42.067Z,21.80
2018-03-18T16:40:09.566Z,21.90
2018-03-18T16:42:37.071Z,22.00
2018-03-18T16:45:04.560Z,21.70
2018-03-18T16:47:32.887Z,22.00
2018-03-18T16:50:00.385Z,21.90
2018-03-18T16:52:29.406Z,21.80
2018-03-18T16:54:57.688Z,21.70
2018-03-18T16:57:25.946Z,21.90
2018-03-18T16:59:53.482Z,22.20
2018-03-18T17:02:21.040Z,22.30
2018-03-18T17:04:48.555Z,22.10
2018-03-18T17:07:16.834Z,22.40
2018-03-18T17:09:45.145Z,22.70
2018-03-18T17:12:12.783Z,22.70
2018-03-18T17:14:41.053Z,23.00
2018-03-18T17:17:08.613Z,22.90
2018-03-18T17:19:36.121Z,22.90
2018-03-18T17:22:03.656Z,22.90
2018-03-18T17:24:31.918Z,23.50
2018-03-18T17:27:00.218Z,23.40
2018-03-18T17:29:29.918Z,23.40
2018-03-18T17:31:59.107Z,23.50
2018-03-18T17:34:26.804Z,23.50
2018-03-18T17:36:54.364Z,23.50
2018-03-18T17:39:22.678Z,23.70
2018-03-18T17:41:50.294Z,23.60
2018-03-18T17:44:29.712Z,23.70
2018-03-18T17:47:09.071Z,23.70
2018-03-18T17:49:48.598Z,24.00
2018-03-18T17:52:27.940Z,24.00
2018-03-18T17:55:07.380Z,24.10
2018-03-18T17:57:34.868Z,24.10
2018-03-18T18:00:02.414Z,24.10
2018-03-18T18:02:29.944Z,24.10
2018-03-18T18:04:57.505Z,24.20
2018-03-18T18:07:25.013Z,24.20
2018-03-18T18:09:53.346Z,24.40
2018-03-18T18:12:20.872Z,24.40
2018-03-18T18:14:48.428Z,24.60
2018-03-18T18:17:16.039Z,24.60
2018-03-18T18:19:43.532Z,25.30
2018-03-18T18:22:11.836Z,25.60
2018-03-18T18:24:40.808Z,25.20
2018-03-18T18:27:08.687Z,25.40
2018-03-18T18:29:36.229Z,25.10
2018-03-18T18:32:03.738Z,25.20
2018-03-18T18:34:31.250Z,25.10
2018-03-18T18:36:58.837Z,25.20
2018-03-18T18:39:27.126Z,25.50
2018-03-18T18:41:55.503Z,25.40
2018-03-18T18:44:24.202Z,25.60
2018-03-18T18:46:52.553Z,25.90
2018-03-18T18:49:20.084Z,25.80
2018-03-18T18:51:47.627Z,26.00
2018-03-18T18:54:15.171Z,26.10
2018-03-18T18:56:43.483Z,26.10
2018-03-18T18:59:11.010Z,26.10
2018-03-18T19:01:39.304Z,26.10
2018-03-18T19:04:07.596Z,26.30
2018-03-18T19:06:35.225Z,26.20
2018-03-18T19:09:02.749Z,26.30
2018-03-18T19:11:30.442Z,26.50
2018-03-18T19:13:58.010Z,26.70
2018-03-18T19:16:25.612Z,26.90
2018-03-18T19:18:53.940Z,27.00
2018-03-18T19:21:21.448Z,26.90
2018-03-18T19:23:48.982Z,27.10
2018-03-18T19:26:16.483Z,27.10
2018-03-18T19:28:44.755Z,27.10
2018-03-18T19:31:12.572Z,27.10
2018-03-18T19:33:40.096Z,27.00
2018-03-18T19:36:12.174Z,26.80
2018-03-18T19:41:24.526Z,26.70
2018-03-18T19:43:52.228Z,26.60
2018-03-18T19:46:19.824Z,26.80
2018-03-18T19:48:48.300Z,26.80
2018-03-18T19:51:16.594Z,26.90
2018-03-18T19:53:45.016Z,27.10
2018-03-18T19:56:12.586Z,27.20
2018-03-18T19:58:40.122Z,27.10
2018-03-18T20:01:07.759Z,27.10
2018-03-18T20:03:36.095Z,27.40
2018-03-18T20:06:03.616Z,27.40
2018-03-18T20:08:31.929Z,27.70
2018-03-18T20:10:59.432Z,27.70
2018-03-18T20:13:26.945Z,27.90
2018-03-18T20:15:54.468Z,28.00
2018-03-18T20:18:22.005Z,28.10
2018-03-18T20:20:49.581Z,28.10
2018-03-18T20:23:17.102Z,28.20
2018-03-18T20:25:44.622Z,28.30
2018-03-18T20:28:12.913Z,27.90
2018-03-18T20:30:41.242Z,28.20
2018-03-18T20:33:08.766Z,28.20
2018-03-18T20:35:36.306Z,28.40
2018-03-18T20:38:03.850Z,28.50
2018-03-18T20:40:32.224Z,28.70
2018-03-18T20:42:59.733Z,29.00
2018-03-18T20:45:28.022Z,29.40
2018-03-18T20:47:56.306Z,29.40
2018-03-18T20:50:24.612Z,29.60
2018-03-18T20:52:52.117Z,29.60
2018-03-18T20:55:19.694Z,29.70
2018-03-18T20:57:47.201Z,29.70
2018-03-18T21:00:14.854Z,29.60
2018-03-18T21:02:43.106Z,29.60
2018-03-18T21:05:11.416Z,29.60
2018-03-18T21:07:38.965Z,29.60
2018-03-18T21:10:07.869Z,29.60
2018-03-18T21:12:35.386Z,29.60
2018-03-18T21:15:02.927Z,29.80
2018-03-18T21:17:30.458Z,29.90
2018-03-18T21:19:58.039Z,29.80
2018-03-18T21:22:25.650Z,29.70
2018-03-18T21:24:53.226Z,29.70
2018-03-18T21:27:20.727Z,29.70
2018-03-18T21:29:48.259Z,29.80
2018-03-18T21:32:15.784Z,30.00
2018-03-18T21:34:43.344Z,30.00
2018-03-18T21:37:10.946Z,30.10
2018-03-18T21:39:39.217Z,30.30
2018-03-18T21:42:06.939Z,30.20
2018-03-18T21:44:34.454Z,30.00
2018-03-18T21:47:03.538Z,30.10
2018-03-18T21:49:31.057Z,30.10
2018-03-18T21:51:58.598Z,30.40
2018-03-18T21:54:26.908Z,30.80
2018-03-18T21:56:54.503Z,30.80
2018-03-18T21:59:22.024Z,31.20
2018-03-18T22:01:49.564Z,30.80
2018-03-18T22:04:17.945Z,31.20
2018-03-18T22:06:46.236Z,31.40
2018-03-18T22:09:14.578Z,31.90
2018-03-18T22:11:42.114Z,31.80
2018-03-18T22:14:09.612Z,31.80
2018-03-18T22:16:37.166Z,31.90
2018-03-18T22:19:04.679Z,31.80
2018-03-18T22:21:33.033Z,32.00
2018-03-18T22:24:00.566Z,32.00
2018-03-18T22:26:28.131Z,32.00
2018-03-18T22:28:55.794Z,32.10
2018-03-18T22:31:24.028Z,32.60
2018-03-18T22:33:52.328Z,33.10
2018-03-18T22:36:19.829Z,32.60
2018-03-18T22:38:48.200Z,33.00
2018-03-18T22:41:16.448Z,32.80
2018-03-18T22:43:44.721Z,33.20
2018-03-18T22:46:13.013Z,33.40
2018-03-18T22:48:41.317Z,33.70
2018-03-18T22:51:08.798Z,33.60
2018-03-18T22:53:36.454Z,33.60
2018-03-18T22:56:03.966Z,33.80
2018-03-18T22:58:31.475Z,34.10
2018-03-18T23:00:58.974Z,34.00
2018-03-18T23:03:27.260Z,34.50
2018-03-18T23:05:54.788Z,34.50
2018-03-18T23:08:22.355Z,34.90
2018-03-18T23:10:49.903Z,35.10
2018-03-18T23:13:17.474Z,35.30
2018-03-18T23:15:45.148Z,35.60
2018-03-18T23:18:12.639Z,35.70
2018-03-18T23:20:40.143Z,35.60
2018-03-18T23:23:08.404Z,35.60
2018-03-18T23:25:36.661Z,35.50
2018-03-18T23:28:04.172Z,35.50
2018-03-18T23:30:32.521Z,35.30
2018-03-18T23:33:00.057Z,35.30
2018-03-18T23:35:27.571Z,35.30
2018-03-18T23:37:55.876Z,35.70
2018-03-18T23:40:23.422Z,35.70
2018-03-18T23:42:51.836Z,36.00
2018-03-18T23:45:19.346Z,36.00
2018-03-18T23:47:46.909Z,35.90
2018-03-18T23:50:14.432Z,36.10
2018-03-18T23:52:41.931Z,36.20
2018-03-18T23:55:09.441Z,36.50
2018-03-18T23:57:37.002Z,36.40
